createdAt,value
2018-04-15T00:00:41.215Z,60.00
2018-04-15T00:03:07.155Z,61.37
2018-04-15T00:05:33.128Z,61.46
2018-04-15T00:07:59.064Z,61.68
2018-04-15T00:10:25.019Z,61.12
2018-04-15T00:12:51.021Z,61.62
2018-04-15T00:15:16.970Z,62.15
2018-04-15T00:17:42.935Z,62.46
2018-04-15T00:20:08.879Z,62.32
2018-04-15T00:22:34.822Z,61.86
2018-04-15T00:25:00.751Z,61.76
2018-04-15T00:27:26.711Z,61.54
2018-04-15T00:29:52.662Z,61.35
2018-04-15T00:32:18.617Z,62.53
2018-04-15T00:34:44.573Z,63.02
2018-04-15T00:37:10.527Z,61.98
2018-04-15T00:39:36.483Z,60.75
2018-04-15T00:42:02.445Z,61.15
2018-04-15T00:44:28.476Z,61.61
2018-04-15T00:46:54.568Z,62.80
2018-04-15T00:49:20.525Z,61.42
2018-04-15T00:51:46.486Z,60.37
2018-04-15T00:54:12.452Z,60.52
2018-04-15T00:56:38.398Z,62.00
2018-04-15T00:59:04.370Z,62.59
2018-04-15T01:01:30.420Z,63.22
2018-04-15T01:03:56.376Z,62.60
2018-04-15T01:06:22.334Z,62.32
2018-04-15T01:08:48.280Z,62.17
2018-04-15T01:11:14.213Z,63.00
2018-04-15T01:13:40.147Z,63.00
2018-04-15T01:16:06.116Z,62.75
2018-04-15T01:18:32.080Z,62.45
2018-04-15T01:20:58.066Z,62.62
2018-04-15T01:23:24.189Z,63.58
2018-04-15T01:25:50.169Z,62.25
2018-04-15T01:28:16.107Z,63.14
2018-04-15T01:30:42.075Z,63.13
2018-04-15T01:33:08.031Z,63.02
2018-04-15T01:35:33.992Z,63.41
2018-04-15T01:37:59.922Z,62.19
2018-04-15T01:40:25.881Z,61.51
2018-04-15T01:42:51.825Z,61.71
2018-04-15T01:45:17.786Z,63.86
2018-04-15T01:47:43.760Z,63.13
2018-04-15T01:50:09.706Z,63.52
2018-04-15T01:52:35.674Z,61.69
2018-04-15T01:55:01.599Z,62.77
2018-04-15T01:57:27.562Z,62.06
2018-04-15T01:59:53.549Z,62.34
2018-04-15T02:02:19.486Z,61.92
2018-04-15T02:04:45.429Z,61.11
2018-04-15T02:07:11.402Z,62.44
2018-04-15T02:09:37.337Z,62.90
2018-04-15T02:12:03.332Z,61.94
2018-04-15T02:14:29.281Z,63.30
2018-04-15T02:16:55.273Z,63.22
2018-04-15T02:19:21.262Z,63.75
2018-04-15T02:21:47.218Z,62.24
2018-04-15T02:24:13.169Z,62.89
2018-04-15T02:26:39.199Z,61.23
2018-04-15T02:29:05.168Z,61.65
2018-04-15T02:31:31.113Z,60.89
2018-04-15T02:33:57.066Z,61.03
2018-04-15T02:36:23.024Z,61.43
2018-04-15T02:38:49.003Z,62.73
2018-04-15T02:41:14.934Z,62.71
2018-04-15T02:43:40.905Z,61.52
2018-04-15T02:46:06.841Z,62.43
2018-04-15T02:48:32.779Z,61.59
2018-04-15T02:50:58.727Z,63.55
2018-04-15T02:53:24.694Z,62.94
2018-04-15T02:55:50.644Z,63.15
2018-04-15T02:58:16.619Z,62.58
2018-04-15T03:00:42.577Z,62.59
2018-04-15T03:03:08.551Z,61.21
2018-04-15T03:05:34.483Z,61.42
2018-04-15T03:08:00.488Z,61.91
2018-04-15T03:10:26.437Z,61.30
2018-04-15T03:12:52.383Z,60.75
2018-04-15T03:15:18.317Z,62.23
2018-04-15T03:17:44.294Z,61.13
2018-04-15T03:20:10.676Z,61.26
2018-04-15T03:22:36.662Z,61.39
2018-04-15T03:25:02.619Z,62.14
2018-04-15T03:27:28.577Z,61.70
2018-04-15T03:29:54.509Z,61.41
2018-04-15T03:32:20.462Z,61.30
2018-04-15T03:34:46.411Z,62.50
2018-04-15T03:37:12.363Z,63.05
2018-04-15T03:39:38.291Z,63.43
2018-04-15T03:42:04.271Z,62.97
2018-04-15T03:44:30.253Z,62.27
2018-04-15T03:46:56.222Z,61.16
2018-04-15T03:49:22.165Z,61.11
2018-04-15T03:51:48.436Z,62.41
2018-04-15T03:54:14.376Z,62.83
2018-04-15T03:56:40.321Z,63.54
2018-04-15T03:59:06.292Z,62.95
2018-04-15T04:01:32.227Z,62.88
2018-04-15T04:03:58.202Z,61.73
2018-04-15T04:06:24.225Z,63.22
2018-04-15T04:08:50.205Z,61.80
2018-04-15T04:11:16.186Z,61.54
2018-04-15T04:13:42.158Z,61.34
2018-04-15T04:16:08.146Z,61.58
2018-04-15T04:18:34.129Z,61.80
2018-04-15T04:21:00.080Z,62.85
2018-04-15T04:23:26.035Z,62.75
2018-04-15T04:25:51.988Z,62.88
2018-04-15T04:28:17.936Z,64.04
2018-04-15T04:30:43.882Z,63.72
2018-04-15T04:33:09.909Z,65.47
2018-04-15T04:35:35.879Z,64.13
2018-04-15T04:38:01.835Z,63.94
2018-04-15T04:40:27.761Z,64.21
2018-04-15T04:42:53.720Z,64.50
2018-04-15T04:45:19.691Z,64.33
2018-04-15T04:47:45.654Z,64.52
2018-04-15T04:50:11.604Z,65.15
2018-04-15T04:52:37.535Z,64.80
2018-04-15T04:55:03.484Z,64.78
2018-04-15T04:57:29.426Z,64.72
2018-04-15T04:59:55.380Z,63.88
2018-04-15T05:02:21.358Z,63.17
2018-04-15T05:04:49.351Z,62.09
2018-04-15T05:07:15.283Z,63.22
2018-04-15T05:09:41.210Z,63.99
2018-04-15T05:12:07.147Z,63.56
2018-04-15T05:14:33.081Z,61.26
2018-04-15T05:17:01.094Z,63.07
2018-04-15T05:21:59.804Z,61.40
2018-04-15T05:24:25.754Z,61.23
2018-04-15T05:26:51.682Z,61.80
2018-04-15T05:29:17.630Z,61.77
2018-04-15T05:31:43.585Z,61.06
2018-04-15T05:34:09.527Z,60.18
2018-04-15T05:36:35.485Z,60.38
2018-04-15T05:39:01.433Z,60.77
2018-04-15T05:41:27.394Z,61.72
2018-04-15T05:43:53.378Z,61.57
2018-04-15T05:46:19.337Z,61.41
2018-04-15T05:48:45.328Z,59.92
2018-04-15T05:51:11.304Z,59.01
2018-04-15T05:53:37.274Z,58.36
2018-04-15T05:56:03.547Z,57.67
2018-04-15T05:58:29.716Z,56.80
2018-04-15T06:00:55.731Z,55.44
2018-04-15T06:03:21.696Z,54.92
2018-04-15T06:05:47.642Z,54.45
2018-04-15T06:08:13.632Z,53.84
2018-04-15T06:10:40.032Z,53.43
2018-04-15T06:13:06.038Z,54.02
2018-04-15T06:15:32.099Z,53.80
2018-04-15T06:17:58.135Z,53.44
2018-04-15T06:20:24.204Z,53.23
2018-04-15T06:22:50.185Z,53.00
2018-04-15T06:25:16.251Z,53.08
2018-04-15T06:27:42.293Z,53.17
2018-04-15T06:30:08.297Z,53.07
2018-04-15T06:32:34.279Z,53.02
2018-04-15T06:35:00.758Z,53.04
2018-04-15T06:37:26.808Z,52.89
2018-04-15T06:39:52.765Z,52.30
2018-04-15T06:42:18.763Z,52.05
2018-04-15T06:44:44.781Z,51.76
2018-04-15T06:47:10.774Z,52.46
2018-04-15T06:49:36.811Z,52.26
2018-04-15T06:52:02.790Z,52.19
2018-04-15T06:54:28.747Z,51.89
2018-04-15T06:56:54.711Z,52.37
2018-04-15T06:59:25.689Z,51.97
2018-04-15T07:01:51.665Z,52.24
2018-04-15T07:04:17.647Z,52.35
2018-04-15T07:06:43.626Z,52.09
2018-04-15T07:09:09.603Z,51.87
2018-04-15T07:11:35.601Z,51.14
2018-04-15T07:14:01.617Z,50.45
2018-04-15T07:16:27.647Z,50.14
2018-04-15T07:18:53.615Z,48.80
2018-04-15T07:21:19.570Z,47.81
2018-04-15T07:23:45.532Z,46.89
2018-04-15T07:26:11.553Z,47.68
2018-04-15T07:28:37.617Z,46.99
2018-04-15T07:31:03.679Z,46.01
2018-04-15T07:33:29.692Z,46.01
2018-04-15T07:35:55.741Z,45.37
2018-04-15T07:38:21.876Z,45.85
2018-04-15T07:40:47.877Z,44.76
2018-04-15T07:43:13.857Z,44.55
2018-04-15T07:45:39.814Z,44.60
2018-04-15T07:48:05.879Z,44.40
2018-04-15T07:50:31.901Z,44.59
2018-04-15T07:52:57.986Z,44.55
2018-04-15T07:55:23.960Z,44.44
2018-04-15T07:57:49.962Z,43.62
2018-04-15T08:00:15.975Z,43.50
2018-04-15T08:02:41.967Z,43.37
2018-04-15T08:05:07.937Z,44.11
2018-04-15T08:07:33.991Z,44.31
2018-04-15T08:10:00.397Z,45.50
2018-04-15T08:12:26.360Z,45.08
2018-04-15T08:14:52.472Z,44.64
2018-04-15T08:17:18.469Z,44.65
2018-04-15T08:19:44.555Z,44.90
2018-04-15T08:22:10.582Z,45.32
2018-04-15T08:24:36.642Z,45.93
2018-04-15T08:27:02.708Z,45.86
2018-04-15T08:29:29.161Z,46.36
2018-04-15T08:31:55.192Z,46.70
2018-04-15T08:34:21.173Z,46.67
2018-04-15T08:36:47.649Z,47.04
2018-04-15T08:39:13.623Z,47.54
2018-04-15T08:41:39.656Z,47.78
2018-04-15T08:44:05.605Z,47.89
2018-04-15T08:46:31.575Z,47.91
2018-04-15T08:48:57.551Z,47.86
2018-04-15T08:51:23.481Z,48.18
2018-04-15T08:53:49.456Z,48.18
2018-04-15T08:56:15.578Z,48.16
2018-04-15T08:58:41.625Z,48.42
2018-04-15T09:01:07.609Z,48.21
2018-04-15T09:03:33.557Z,48.05
2018-04-15T09:05:59.518Z,47.73
2018-04-15T09:08:25.489Z,47.79
2018-04-15T09:10:51.565Z,47.59
2018-04-15T09:13:17.545Z,47.06
2018-04-15T09:15:43.538Z,46.97
2018-04-15T09:18:09.558Z,46.85
2018-04-15T09:20:35.526Z,47.11
2018-04-15T09:23:01.533Z,47.07
2018-04-15T09:25:27.515Z,46.89
2018-04-15T09:27:53.490Z,46.65
2018-04-15T09:30:19.534Z,46.77
2018-04-15T09:32:45.498Z,46.60
2018-04-15T09:35:11.463Z,46.95
2018-04-15T09:37:37.475Z,46.91
2018-04-15T09:40:03.482Z,47.22
2018-04-15T09:42:29.458Z,46.59
2018-04-15T09:44:55.434Z,46.47
2018-04-15T09:47:21.449Z,46.40
2018-04-15T09:49:47.491Z,46.68
2018-04-15T09:52:13.529Z,45.91
2018-04-15T09:54:39.508Z,46.24
2018-04-15T09:57:05.557Z,46.40
2018-04-15T09:59:31.650Z,46.28
2018-04-15T10:01:57.649Z,46.26
2018-04-15T10:04:23.626Z,45.70
2018-04-15T10:06:49.565Z,45.78
2018-04-15T10:09:15.525Z,45.72
2018-04-15T10:11:41.495Z,45.63
2018-04-15T10:14:07.469Z,45.35
2018-04-15T10:16:33.470Z,45.77
2018-04-15T10:18:59.425Z,45.85
2018-04-15T10:21:25.430Z,45.39
2018-04-15T10:23:51.366Z,45.67
2018-04-15T10:26:17.389Z,45.77
2018-04-15T10:28:43.400Z,46.10
2018-04-15T10:31:09.370Z,45.92
2018-04-15T10:33:35.331Z,46.11
2018-04-15T10:36:01.325Z,45.53
2018-04-15T10:38:27.280Z,45.67
2018-04-15T10:40:53.261Z,45.57
2018-04-15T10:43:19.276Z,45.47
2018-04-15T10:45:45.264Z,45.56
2018-04-15T10:48:11.598Z,46.00
2018-04-15T10:50:37.532Z,45.75
2018-04-15T10:53:03.459Z,45.49
2018-04-15T10:55:29.498Z,44.74
2018-04-15T10:57:55.521Z,45.15
2018-04-15T11:00:21.516Z,44.01
2018-04-15T11:02:47.463Z,44.34
2018-04-15T11:05:13.418Z,43.64
2018-04-15T11:07:39.376Z,43.88
2018-04-15T11:10:05.309Z,44.09
2018-04-15T11:12:31.279Z,44.53
2018-04-15T11:14:57.265Z,43.63
2018-04-15T11:17:23.202Z,43.42
2018-04-15T11:19:49.188Z,43.67
2018-04-15T11:22:15.153Z,43.59
2018-04-15T11:24:41.098Z,44.26
2018-04-15T11:27:07.038Z,44.45
2018-04-15T11:29:33.027Z,43.85
2018-04-15T11:31:59.038Z,43.76
2018-04-15T11:34:24.998Z,43.77
2018-04-15T11:36:51.025Z,44.50
2018-04-15T11:39:17.017Z,44.05
2018-04-15T11:41:42.997Z,44.71
2018-04-15T11:44:08.929Z,44.46
2018-04-15T11:46:34.874Z,44.63
2018-04-15T11:49:01.161Z,44.66
2018-04-15T11:51:27.858Z,44.38
2018-04-15T11:53:54.135Z,44.88
2018-04-15T11:56:20.113Z,44.93
2018-04-15T11:58:46.305Z,44.68
2018-04-15T12:01:12.577Z,44.55
2018-04-15T12:03:38.545Z,44.57
2018-04-15T12:06:04.610Z,44.57
2018-04-15T12:08:30.605Z,45.17
2018-04-15T12:10:56.560Z,45.27
2018-04-15T12:13:22.578Z,45.03
2018-04-15T12:15:48.551Z,45.21
2018-04-15T12:18:14.528Z,45.73
2018-04-15T12:20:40.480Z,44.97
2018-04-15T12:23:06.438Z,44.75
2018-04-15T12:25:32.537Z,44.93
2018-04-15T12:27:58.538Z,45.02
2018-04-15T12:30:24.475Z,45.42
2018-04-15T12:32:50.447Z,45.44
2018-04-15T12:35:16.378Z,45.30
2018-04-15T12:37:42.399Z,44.73
2018-04-15T12:40:08.357Z,44.94
2018-04-15T12:42:34.379Z,45.31
2018-04-15T12:45:00.358Z,45.15
2018-04-15T12:47:26.380Z,45.23
2018-04-15T12:49:52.410Z,45.34
2018-04-15T12:52:18.379Z,45.32
2018-04-15T12:54:44.370Z,45.52
2018-04-15T12:57:10.392Z,45.27
2018-04-15T12:59:36.405Z,44.98
2018-04-15T13:02:02.361Z,44.79
2018-04-15T13:04:28.339Z,43.99
2018-04-15T13:06:56.324Z,45.44
2018-04-15T13:09:22.277Z,44.30
2018-04-15T13:11:48.237Z,45.29
2018-04-15T13:14:14.189Z,44.86
2018-04-15T13:16:40.158Z,44.93
2018-04-15T13:19:06.147Z,44.63
2018-04-15T13:21:32.109Z,43.82
2018-04-15T13:23:58.108Z,44.14
2018-04-15T13:26:24.090Z,44.21
2018-04-15T13:28:50.103Z,43.65
2018-04-15T13:31:16.117Z,43.90
2018-04-15T13:33:42.085Z,44.39
2018-04-15T13:36:08.041Z,43.83
2018-04-15T13:38:34.024Z,43.76
2018-04-15T13:40:59.975Z,43.66
2018-04-15T13:43:25.963Z,43.44
2018-04-15T13:45:51.933Z,42.80
2018-04-15T13:48:17.868Z,43.94
2018-04-15T13:50:43.877Z,43.22
2018-04-15T13:53:09.977Z,43.57
2018-04-15T13:55:35.911Z,43.38
2018-04-15T13:58:01.875Z,42.38
2018-04-15T14:00:27.825Z,42.29
2018-04-15T14:02:53.781Z,42.75
2018-04-15T14:05:19.736Z,42.95
2018-04-15T14:07:45.778Z,42.81
2018-04-15T14:10:11.748Z,43.75
2018-04-15T14:12:37.713Z,42.61
2018-04-15T14:15:03.673Z,42.87
2018-04-15T14:17:33.579Z,43.22
2018-04-15T14:19:59.556Z,43.08
2018-04-15T14:22:25.511Z,43.12
2018-04-15T14:24:53.290Z,43.07
2018-04-15T14:27:19.338Z,42.22
2018-04-15T14:29:45.279Z,43.00
2018-04-15T14:32:11.249Z,42.69
2018-04-15T14:34:37.222Z,41.69
2018-04-15T14:37:03.196Z,43.41
2018-04-15T14:39:29.206Z,42.57
2018-04-15T14:41:55.171Z,42.13
2018-04-15T14:44:21.114Z,42.74
2018-04-15T14:46:47.514Z,41.93
2018-04-15T14:49:14.373Z,42.06
2018-04-15T14:51:40.535Z,42.36
2018-04-15T14:54:06.632Z,44.07
2018-04-15T14:56:32.945Z,42.71
2018-04-15T14:58:59.783Z,41.75
2018-04-15T15:01:26.292Z,41.57
2018-04-15T15:03:52.582Z,41.58
2018-04-15T15:06:19.817Z,41.71
2018-04-15T15:08:46.741Z,41.13
2018-04-15T15:11:15.172Z,41.81
2018-04-15T15:13:45.166Z,42.85
2018-04-15T15:16:12.807Z,42.92
2018-04-15T15:23:53.844Z,42.35
2018-04-15T15:26:20.069Z,42.38
2018-04-15T15:31:19.051Z,42.85
2018-04-15T15:33:46.972Z,42.17
2018-04-15T15:36:12.950Z,41.97
2018-04-15T15:38:40.168Z,42.39
2018-04-15T15:41:08.191Z,42.32
2018-04-15T15:43:34.301Z,42.56
2018-04-15T15:46:01.103Z,42.70
2018-04-15T15:48:27.149Z,42.84
2018-04-15T15:50:53.136Z,42.61
2018-04-15T15:53:19.946Z,42.95
2018-04-15T15:55:45.961Z,42.98
2018-04-15T16:00:47.158Z,43.13
2018-04-15T16:03:13.247Z,43.09
2018-04-15T16:05:39.263Z,43.20
2018-04-15T16:08:05.347Z,43.31
2018-04-15T16:10:31.333Z,43.68
2018-04-15T16:12:57.300Z,44.16
2018-04-15T16:15:23.336Z,44.74
2018-04-15T16:17:50.506Z,44.84
2018-04-15T16:20:16.621Z,45.17
2018-04-15T16:22:43.675Z,45.20
2018-04-15T16:25:10.725Z,45.78
2018-04-15T16:27:36.778Z,45.87
2018-04-15T16:30:02.922Z,46.16
2018-04-15T16:32:28.933Z,46.05
2018-04-15T16:34:54.931Z,46.13
2018-04-15T16:37:21.000Z,46.23
2018-04-15T16:39:47.173Z,46.21
2018-04-15T16:42:18.040Z,46.41
2018-04-15T16:44:44.068Z,49.25
2018-04-15T16:47:11.155Z,48.79
2018-04-15T16:49:37.220Z,48.47
2018-04-15T16:52:03.227Z,48.41
2018-04-15T16:54:29.312Z,48.15
2018-04-15T16:56:55.708Z,47.32
2018-04-15T16:59:23.550Z,47.89
2018-04-15T17:01:49.535Z,47.33
2018-04-15T17:04:16.449Z,48.04
2018-04-15T17:06:42.549Z,49.38
2018-04-15T17:09:11.868Z,46.81
2018-04-15T17:11:41.295Z,46.57
2018-04-15T17:14:07.355Z,46.40
2018-04-15T17:16:33.442Z,46.37
2018-04-15T17:18:59.526Z,46.87
2018-04-15T17:21:26.722Z,46.39
2018-04-15T17:23:53.598Z,46.74
2018-04-15T17:26:19.633Z,46.62
2018-04-15T17:28:45.810Z,46.48
2018-04-15T17:31:13.620Z,46.71
2018-04-15T17:33:39.706Z,46.43
2018-04-15T17:36:05.777Z,46.64
2018-04-15T17:38:31.858Z,47.34
2018-04-15T17:40:58.048Z,48.02
2018-04-15T17:43:24.011Z,48.48
2018-04-15T17:45:51.203Z,47.91
2018-04-15T17:48:17.362Z,47.89
2018-04-15T17:50:43.486Z,47.76
2018-04-15T17:53:09.545Z,47.92
2018-04-15T17:55:35.591Z,48.06
2018-04-15T17:58:01.639Z,48.94
2018-04-15T18:00:27.655Z,49.71
2018-04-15T18:02:53.668Z,49.78
2018-04-15T18:05:19.694Z,49.50
2018-04-15T18:07:45.682Z,49.41
2018-04-15T18:10:11.731Z,49.42
2018-04-15T18:12:37.753Z,49.65
2018-04-15T18:15:03.953Z,50.56
2018-04-15T18:17:29.973Z,50.37
2018-04-15T18:19:55.994Z,50.19
2018-04-15T18:24:53.474Z,50.57
2018-04-15T18:27:19.422Z,50.30
2018-04-15T18:29:45.487Z,51.25
2018-04-15T18:32:11.444Z,51.15
2018-04-15T18:34:37.463Z,51.05
2018-04-15T18:37:03.543Z,51.75
2018-04-15T18:39:29.729Z,52.29
2018-04-15T18:41:55.717Z,53.60
2018-04-15T18:44:21.789Z,53.41
2018-04-15T18:46:47.893Z,52.19
2018-04-15T18:49:13.991Z,51.89
2018-04-15T18:51:40.078Z,52.41
2018-04-15T18:54:06.166Z,53.60
2018-04-15T18:56:32.679Z,54.55
2018-04-15T18:58:58.749Z,53.39
2018-04-15T19:01:24.795Z,53.04
2018-04-15T19:03:50.821Z,53.29
2018-04-15T19:06:16.863Z,55.33
2018-04-15T19:08:43.066Z,54.20
2018-04-15T19:11:09.220Z,54.87
2018-04-15T19:13:35.474Z,54.15
2018-04-15T19:16:01.569Z,53.21
2018-04-15T19:18:27.687Z,53.24
2018-04-15T19:20:53.818Z,55.14
2018-04-15T19:25:52.830Z,53.15
2018-04-15T19:28:18.930Z,53.24
2018-04-15T19:30:45.056Z,53.81
2018-04-15T19:33:12.133Z,53.21
2018-04-15T19:35:41.985Z,53.53
2018-04-15T19:38:08.069Z,55.86
2018-04-15T19:40:34.169Z,55.43
2018-04-15T19:43:00.375Z,55.27
2018-04-15T19:45:26.389Z,56.03
2018-04-15T19:47:52.657Z,55.97
2018-04-15T19:50:18.738Z,57.21
2018-04-15T19:52:44.886Z,55.99
2018-04-15T19:55:11.088Z,55.96
2018-04-15T19:57:37.208Z,56.32
2018-04-15T20:00:03.411Z,57.12
2018-04-15T20:02:30.368Z,55.95
2018-04-15T20:04:56.427Z,57.57
2018-04-15T20:07:22.441Z,56.78
2018-04-15T20:09:50.599Z,58.45
2018-04-15T20:12:16.802Z,56.62
2018-04-15T20:14:42.919Z,56.54
2018-04-15T20:17:09.934Z,57.53
2018-04-15T20:19:36.082Z,58.99
2018-04-15T20:22:02.245Z,57.13
2018-04-15T20:24:28.496Z,58.62
2018-04-15T20:26:54.726Z,59.38
2018-04-15T20:29:20.793Z,58.38
2018-04-15T20:31:46.883Z,57.94
2018-04-15T20:34:12.919Z,58.62
2018-04-15T20:36:38.984Z,57.66
2018-04-15T20:39:05.112Z,58.55
2018-04-15T20:41:31.219Z,59.29
2018-04-15T20:43:57.208Z,58.42
2018-04-15T20:46:23.209Z,58.69
2018-04-15T20:48:49.206Z,56.82
2018-04-15T20:51:15.204Z,56.60
2018-04-15T20:53:41.278Z,57.12
2018-04-15T20:56:07.326Z,57.13
2018-04-15T20:58:33.343Z,56.30
2018-04-15T21:00:59.397Z,55.94
2018-04-15T21:03:25.490Z,55.83
2018-04-15T21:05:51.709Z,55.76
2018-04-15T21:08:17.710Z,55.55
2018-04-15T21:10:44.076Z,56.43
2018-04-15T21:13:10.182Z,57.07
2018-04-15T21:15:36.531Z,57.07
2018-04-15T21:18:02.645Z,56.73
2018-04-15T21:20:28.670Z,55.94
2018-04-15T21:22:54.686Z,55.67
2018-04-15T21:25:20.776Z,56.88
2018-04-15T21:27:46.828Z,56.25
2018-04-15T21:30:13.061Z,55.76
2018-04-15T21:32:39.139Z,56.12
2018-04-15T21:35:05.361Z,56.90
2018-04-15T21:37:31.411Z,57.05
2018-04-15T21:39:57.513Z,56.95
2018-04-15T21:42:23.524Z,57.23
2018-04-15T21:44:49.587Z,57.71
2018-04-15T21:47:15.659Z,56.95
2018-04-15T21:49:41.770Z,56.69
2018-04-15T21:52:07.824Z,56.12
2018-04-15T21:54:33.856Z,56.08
2018-04-15T21:56:59.949Z,56.59
2018-04-15T21:59:26.038Z,56.55
2018-04-15T22:01:52.075Z,56.66
2018-04-15T22:04:18.147Z,56.79
2018-04-15T22:06:44.363Z,56.75
2018-04-15T22:09:10.382Z,57.65
2018-04-15T22:11:36.874Z,56.79
2018-04-15T22:14:02.898Z,56.01
2018-04-15T22:16:29.055Z,55.48
2018-04-15T22:18:55.203Z,55.84
2018-04-15T22:21:21.212Z,57.40
2018-04-15T22:23:47.204Z,57.61
2018-04-15T22:26:13.211Z,56.05
2018-04-15T22:28:39.291Z,57.51
2018-04-15T22:31:05.320Z,58.26
2018-04-15T22:33:31.621Z,58.19
2018-04-15T22:35:58.449Z,56.79
2018-04-15T22:38:25.269Z,57.75
2018-04-15T22:40:51.326Z,56.63
2018-04-15T22:43:17.398Z,57.43
2018-04-15T22:45:43.429Z,56.85
2018-04-15T22:48:09.568Z,57.65
2018-04-15T22:50:35.659Z,56.76
2018-04-15T22:53:01.742Z,56.12
2018-04-15T22:55:27.911Z,56.00
2018-04-15T22:57:53.978Z,57.50
2018-04-15T23:00:19.990Z,57.52
2018-04-15T23:02:46.139Z,58.02
2018-04-15T23:05:12.200Z,58.97
2018-04-15T23:07:38.288Z,59.69
2018-04-15T23:10:04.370Z,59.23
2018-04-15T23:12:30.709Z,58.49
2018-04-15T23:14:56.784Z,56.91
2018-04-15T23:17:22.921Z,57.52
2018-04-15T23:19:48.963Z,57.07
2018-04-15T23:22:15.194Z,59.80
2018-04-15T23:24:41.324Z,58.24
2018-04-15T23:27:07.370Z,57.99
2018-04-15T23:29:33.428Z,58.24
2018-04-15T23:31:59.504Z,59.05
2018-04-15T23:34:25.616Z,58.90
2018-04-15T23:36:52.579Z,60.57
2018-04-15T23:39:19.438Z,60.26
2018-04-15T23:41:45.521Z,60.80
2018-04-15T23:44:11.635Z,60.92
2018-04-15T23:46:37.651Z,59.76
2018-04-15T23:49:03.739Z,59.09
2018-04-15T23:51:29.800Z,58.58
2018-04-15T23:53:55.813Z,59.33
2018-04-15T23:56:22.893Z,60.45
2018-04-15T23:58:48.909Z,60.35
